sensor_id;sensor_type;location;lat;lon;timestamp;P1;durP1;ratioP1;P2;durP2;ratioP2
46222;SDS011;31943;51.410;7.564;2022-12-10T07:25:59;18.30;;;13.75;;
46222;SDS011;31943;51.410;7.564;2022-12-10T07:28:35;19.77;;;15.20;;
46222;SDS011;31943;51.410;7.564;2022-12-10T07:31:25;17.88;;;12.60;;
46222;SDS011;31943;51.410;7.564;2022-12-10T07:34:08;20.77;;;14.40;;
46222;SDS011;31943;51.410;7.564;2022-12-10T07:36:42;16.40;;;13.30;;
46222;SDS011;31943;51.410;7.564;2022-12-10T07:39:09;20.67;;;14.98;;
46222;SDS011;31943;51.410;7.564;2022-12-10T07:41:41;17.67;;;13.35;;
46222;SDS011;31943;51.410;7.564;2022-12-10T07:44:34;17.30;;;12.15;;
46222;SDS011;31943;51.410;7.564;2022-12-10T07:47:11;15.60;;;11.25;;
46222;SDS011;31943;51.410;7.564;2022-12-10T07:49:37;19.27;;;12.82;;
46222;SDS011;31943;51.410;7.564;2022-12-10T07:52:03;17.95;;;13.05;;
46222;SDS011;31943;51.410;7.564;2022-12-10T07:54:29;17.75;;;12.13;;
46222;SDS011;31943;51.410;7.564;2022-12-10T07:56:56;18.20;;;12.45;;
46222;SDS011;31943;51.410;7.564;2022-12-10T07:59:22;16.05;;;11.55;;
46222;SDS011;31943;51.410;7.564;2022-12-10T08:01:50;16.88;;;12.85;;
46222;SDS011;31943;51.410;7.564;2022-12-10T08:25:29;17.40;;;13.68;;
46222;SDS011;31943;51.410;7.564;2022-12-10T08:28:01;17.73;;;13.50;;
46222;SDS011;31943;51.410;7.564;2022-12-10T08:30:28;16.90;;;12.65;;
46222;SDS011;31943;51.410;7.564;2022-12-10T08:32:54;19.60;;;13.05;;
46222;SDS011;31943;51.410;7.564;2022-12-10T08:35:21;18.60;;;13.70;;
46222;SDS011;31943;51.410;7.564;2022-12-10T08:37:48;18.65;;;13.30;;
46222;SDS011;31943;51.410;7.564;2022-12-10T08:40:14;17.40;;;12.75;;
46222;SDS011;31943;51.410;7.564;2022-12-10T08:42:55;16.15;;;12.10;;
46222;SDS011;31943;51.410;7.564;2022-12-10T08:45:22;17.05;;;12.75;;
46222;SDS011;31943;51.410;7.564;2022-12-10T08:47:48;19.33;;;13.30;;
46222;SDS011;31943;51.410;7.564;2022-12-10T08:50:14;15.80;;;12.48;;
46222;SDS011;31943;51.410;7.564;2022-12-10T08:52:41;16.42;;;12.50;;
46222;SDS011;31943;51.410;7.564;2022-12-10T08:55:08;18.38;;;13.00;;
46222;SDS011;31943;51.410;7.564;2022-12-10T08:57:33;17.77;;;13.38;;
46222;SDS011;31943;51.410;7.564;2022-12-10T09:00:01;18.67;;;14.23;;
46222;SDS011;31943;51.410;7.564;2022-12-10T09:02:28;18.17;;;12.63;;
46222;SDS011;31943;51.410;7.564;2022-12-10T09:04:55;18.15;;;12.52;;
46222;SDS011;31943;51.410;7.564;2022-12-10T09:07:20;17.23;;;12.32;;
46222;SDS011;31943;51.410;7.564;2022-12-10T09:09:48;15.10;;;11.60;;
46222;SDS011;31943;51.410;7.564;2022-12-10T09:12:14;16.92;;;12.68;;
46222;SDS011;31943;51.410;7.564;2022-12-10T09:14:40;16.35;;;12.52;;
46222;SDS011;31943;51.410;7.564;2022-12-10T09:17:07;17.10;;;11.98;;
46222;SDS011;31943;51.410;7.564;2022-12-10T09:19:33;16.38;;;11.80;;
46222;SDS011;31943;51.410;7.564;2022-12-10T09:21:59;16.00;;;11.75;;
46222;SDS011;31943;51.410;7.564;2022-12-10T09:24:25;14.50;;;11.43;;
46222;SDS011;31943;51.410;7.564;2022-12-10T09:26:51;15.82;;;11.68;;
46222;SDS011;31943;51.410;7.564;2022-12-10T09:29:17;15.43;;;11.73;;
46222;SDS011;31943;51.410;7.564;2022-12-10T09:31:44;15.25;;;11.07;;
46222;SDS011;31943;51.410;7.564;2022-12-10T09:34:11;16.75;;;11.63;;
46222;SDS011;31943;51.410;7.564;2022-12-10T09:36:37;15.20;;;11.70;;
46222;SDS011;31943;51.410;7.564;2022-12-10T09:39:03;14.90;;;11.52;;
46222;SDS011;31943;51.410;7.564;2022-12-10T09:41:50;16.45;;;12.40;;
46222;SDS011;31943;51.410;7.564;2022-12-10T09:44:31;14.48;;;11.55;;
46222;SDS011;31943;51.410;7.564;2022-12-10T09:47:03;18.70;;;13.15;;
46222;SDS011;31943;51.410;7.564;2022-12-10T09:49:36;16.83;;;11.57;;
46222;SDS011;31943;51.410;7.564;2022-12-10T09:52:12;17.33;;;11.23;;
46222;SDS011;31943;51.410;7.564;2022-12-10T09:54:40;15.70;;;12.30;;
46222;SDS011;31943;51.410;7.564;2022-12-10T09:57:10;17.50;;;12.68;;
46222;SDS011;31943;51.410;7.564;2022-12-10T09:59:50;16.75;;;11.50;;
46222;SDS011;31943;51.410;7.564;2022-12-10T10:02:21;17.33;;;11.75;;
46222;SDS011;31943;51.410;7.564;2022-12-10T10:04:56;16.70;;;11.95;;
46222;SDS011;31943;51.410;7.564;2022-12-10T10:07:38;17.33;;;11.85;;
46222;SDS011;31943;51.410;7.564;2022-12-10T10:10:16;16.13;;;12.48;;
46222;SDS011;31943;51.410;7.564;2022-12-10T10:13:09;18.15;;;12.82;;
46222;SDS011;31943;51.410;7.564;2022-12-10T10:15:47;20.33;;;13.98;;
46222;SDS011;31943;51.410;7.564;2022-12-10T10:18:17;20.80;;;14.75;;
46222;SDS011;31943;51.410;7.564;2022-12-10T10:20:49;19.98;;;13.93;;
46222;SDS011;31943;51.410;7.564;2022-12-10T10:23:17;19.48;;;13.98;;
46222;SDS011;31943;51.410;7.564;2022-12-10T10:25:43;19.65;;;13.98;;
46222;SDS011;31943;51.410;7.564;2022-12-10T10:28:10;19.20;;;13.60;;
46222;SDS011;31943;51.410;7.564;2022-12-10T10:30:40;21.98;;;13.05;;
46222;SDS011;31943;51.410;7.564;2022-12-10T10:33:09;18.90;;;13.82;;
46222;SDS011;31943;51.410;7.564;2022-12-10T10:35:41;23.23;;;14.10;;
46222;SDS011;31943;51.410;7.564;2022-12-10T10:38:15;20.45;;;15.15;;
46222;SDS011;31943;51.410;7.564;2022-12-10T10:40:44;19.30;;;14.02;;
46222;SDS011;31943;51.410;7.564;2022-12-10T10:43:12;20.80;;;15.23;;
46222;SDS011;31943;51.410;7.564;2022-12-10T10:45:43;22.02;;;13.90;;
46222;SDS011;31943;51.410;7.564;2022-12-10T10:48:15;22.05;;;15.55;;
46222;SDS011;31943;51.410;7.564;2022-12-10T10:50:43;20.45;;;15.23;;
46222;SDS011;31943;51.410;7.564;2022-12-10T10:53:29;21.08;;;15.18;;
46222;SDS011;31943;51.410;7.564;2022-12-10T10:55:57;19.98;;;14.68;;
46222;SDS011;31943;51.410;7.564;2022-12-10T10:58:26;21.20;;;15.48;;
46222;SDS011;31943;51.410;7.564;2022-12-10T11:00:53;23.35;;;15.38;;
46222;SDS011;31943;51.410;7.564;2022-12-10T11:03:20;21.10;;;15.25;;
46222;SDS011;31943;51.410;7.564;2022-12-10T11:05:46;23.67;;;15.13;;
46222;SDS011;31943;51.410;7.564;2022-12-10T11:08:13;22.40;;;15.23;;
46222;SDS011;31943;51.410;7.564;2022-12-10T11:10:48;24.63;;;15.90;;
46222;SDS011;31943;51.410;7.564;2022-12-10T11:13:18;21.83;;;14.32;;
46222;SDS011;31943;51.410;7.564;2022-12-10T11:15:53;22.73;;;15.75;;
46222;SDS011;31943;51.410;7.564;2022-12-10T11:18:23;18.30;;;14.35;;
46222;SDS011;31943;51.410;7.564;2022-12-10T11:20:58;19.95;;;14.68;;
46222;SDS011;31943;51.410;7.564;2022-12-10T11:23:27;19.95;;;14.45;;
46222;SDS011;31943;51.410;7.564;2022-12-10T11:25:57;23.63;;;16.13;;
46222;SDS011;31943;51.410;7.564;2022-12-10T11:28:36;21.13;;;14.98;;
46222;SDS011;31943;51.410;7.564;2022-12-10T11:31:20;18.77;;;13.65;;
46222;SDS011;31943;51.410;7.564;2022-12-10T11:33:59;22.35;;;14.93;;
46222;SDS011;31943;51.410;7.564;2022-12-10T11:36:35;19.73;;;14.00;;
46222;SDS011;31943;51.410;7.564;2022-12-10T11:39:10;21.88;;;14.50;;
46222;SDS011;31943;51.410;7.564;2022-12-10T11:41:56;20.83;;;14.73;;
46222;SDS011;31943;51.410;7.564;2022-12-10T11:44:29;23.15;;;15.25;;
46222;SDS011;31943;51.410;7.564;2022-12-10T11:47:15;21.73;;;15.38;;
46222;SDS011;31943;51.410;7.564;2022-12-10T11:49:53;20.20;;;14.75;;
46222;SDS011;31943;51.410;7.564;2022-12-10T11:52:33;19.10;;;14.73;;
46222;SDS011;31943;51.410;7.564;2022-12-10T11:55:13;20.27;;;14.13;;
46222;SDS011;31943;51.410;7.564;2022-12-10T11:57:52;21.48;;;14.57;;
46222;SDS011;31943;51.410;7.564;2022-12-10T12:00:28;21.35;;;14.65;;
46222;SDS011;31943;51.410;7.564;2022-12-10T12:03:18;19.60;;;14.20;;
46222;SDS011;31943;51.410;7.564;2022-12-10T12:05:59;35.63;;;22.27;;
46222;SDS011;31943;51.410;7.564;2022-12-10T12:08:39;33.72;;;23.08;;
46222;SDS011;31943;51.410;7.564;2022-12-10T12:11:20;37.50;;;23.83;;
46222;SDS011;31943;51.410;7.564;2022-12-10T12:13:55;37.00;;;24.25;;
46222;SDS011;31943;51.410;7.564;2022-12-10T12:16:26;38.30;;;25.58;;
46222;SDS011;31943;51.410;7.564;2022-12-10T12:18:55;37.58;;;24.95;;
46222;SDS011;31943;51.410;7.564;2022-12-10T12:21:25;37.53;;;23.92;;
46222;SDS011;31943;51.410;7.564;2022-12-10T12:23:51;38.55;;;25.13;;
46222;SDS011;31943;51.410;7.564;2022-12-10T12:26:23;36.70;;;24.23;;
46222;SDS011;31943;51.410;7.564;2022-12-10T12:28:52;40.92;;;25.45;;
46222;SDS011;31943;51.410;7.564;2022-12-10T12:31:34;38.10;;;24.95;;
46222;SDS011;31943;51.410;7.564;2022-12-10T12:34:03;37.70;;;23.48;;
46222;SDS011;31943;51.410;7.564;2022-12-10T12:36:36;36.00;;;24.02;;
46222;SDS011;31943;51.410;7.564;2022-12-10T12:39:02;41.22;;;26.23;;
46222;SDS011;31943;51.410;7.564;2022-12-10T12:41:37;37.40;;;24.75;;
46222;SDS011;31943;51.410;7.564;2022-12-10T12:44:12;39.60;;;26.23;;
46222;SDS011;31943;51.410;7.564;2022-12-10T12:46:44;40.47;;;25.25;;
46222;SDS011;31943;51.410;7.564;2022-12-10T12:49:13;39.72;;;23.88;;
46222;SDS011;31943;51.410;7.564;2022-12-10T12:51:45;34.75;;;24.83;;
46222;SDS011;31943;51.410;7.564;2022-12-10T12:54:17;43.03;;;26.65;;
46222;SDS011;31943;51.410;7.564;2022-12-10T12:56:51;44.40;;;26.85;;
46222;SDS011;31943;51.410;7.564;2022-12-10T12:59:26;40.83;;;26.35;;
46222;SDS011;31943;51.410;7.564;2022-12-10T13:02:01;44.47;;;26.42;;
46222;SDS011;31943;51.410;7.564;2022-12-10T13:04:38;45.13;;;25.88;;
46222;SDS011;31943;51.410;7.564;2022-12-10T13:12:49;41.38;;;25.02;;
46222;SDS011;31943;51.410;7.564;2022-12-10T13:15:20;44.13;;;27.30;;
46222;SDS011;31943;51.410;7.564;2022-12-10T13:18:04;39.63;;;25.98;;
46222;SDS011;31943;51.410;7.564;2022-12-10T13:23:51;40.13;;;26.35;;
46222;SDS011;31943;51.410;7.564;2022-12-10T13:26:25;39.22;;;25.77;;
46222;SDS011;31943;51.410;7.564;2022-12-10T13:28:52;42.85;;;26.38;;
46222;SDS011;31943;51.410;7.564;2022-12-10T13:31:22;45.40;;;28.45;;
46222;SDS011;31943;51.410;7.564;2022-12-10T13:37:04;44.70;;;26.88;;
46222;SDS011;31943;51.410;7.564;2022-12-10T13:39:43;41.58;;;26.80;;
46222;SDS011;31943;51.410;7.564;2022-12-10T13:45:03;42.40;;;26.08;;
46222;SDS011;31943;51.410;7.564;2022-12-10T13:47:41;42.13;;;27.17;;
46222;SDS011;31943;51.410;7.564;2022-12-10T13:50:15;45.40;;;26.67;;
46222;SDS011;31943;51.410;7.564;2022-12-10T13:52:44;39.60;;;26.40;;
46222;SDS011;31943;51.410;7.564;2022-12-10T13:58:04;42.90;;;26.42;;
46222;SDS011;31943;51.410;7.564;2022-12-10T14:00:53;48.50;;;28.48;;
46222;SDS011;31943;51.410;7.564;2022-12-10T14:03:41;49.92;;;29.63;;
46222;SDS011;31943;51.410;7.564;2022-12-10T14:06:16;42.45;;;26.25;;
46222;SDS011;31943;51.410;7.564;2022-12-10T14:08:46;46.63;;;27.92;;
46222;SDS011;31943;51.410;7.564;2022-12-10T14:11:25;45.45;;;27.55;;
46222;SDS011;31943;51.410;7.564;2022-12-10T14:13:54;47.65;;;26.90;;
46222;SDS011;31943;51.410;7.564;2022-12-10T14:16:22;49.22;;;28.88;;
46222;SDS011;31943;51.410;7.564;2022-12-10T14:18:51;47.85;;;27.45;;
46222;SDS011;31943;51.410;7.564;2022-12-10T14:21:20;46.80;;;28.08;;
46222;SDS011;31943;51.410;7.564;2022-12-10T14:23:46;46.83;;;27.17;;
46222;SDS011;31943;51.410;7.564;2022-12-10T14:26:14;51.85;;;29.38;;
46222;SDS011;31943;51.410;7.564;2022-12-10T14:28:42;46.50;;;28.63;;
46222;SDS011;31943;51.410;7.564;2022-12-10T14:31:12;46.13;;;28.52;;
46222;SDS011;31943;51.410;7.564;2022-12-10T14:33:40;47.10;;;27.85;;
46222;SDS011;31943;51.410;7.564;2022-12-10T14:36:12;46.63;;;28.67;;
46222;SDS011;31943;51.410;7.564;2022-12-10T14:38:41;48.70;;;28.58;;
46222;SDS011;31943;51.410;7.564;2022-12-10T14:41:06;48.72;;;29.40;;
46222;SDS011;31943;51.410;7.564;2022-12-10T14:43:32;48.70;;;29.17;;
46222;SDS011;31943;51.410;7.564;2022-12-10T14:46:02;48.55;;;28.75;;
46222;SDS011;31943;51.410;7.564;2022-12-10T14:48:29;46.00;;;28.13;;
46222;SDS011;31943;51.410;7.564;2022-12-10T14:50:55;44.85;;;27.77;;
46222;SDS011;31943;51.410;7.564;2022-12-10T14:53:30;43.13;;;27.50;;
46222;SDS011;31943;51.410;7.564;2022-12-10T14:55:57;48.63;;;28.33;;
46222;SDS011;31943;51.410;7.564;2022-12-10T14:58:27;48.10;;;28.33;;
46222;SDS011;31943;51.410;7.564;2022-12-10T15:01:01;51.15;;;28.70;;
46222;SDS011;31943;51.410;7.564;2022-12-10T15:03:29;46.67;;;28.67;;
46222;SDS011;31943;51.410;7.564;2022-12-10T15:05:58;48.08;;;30.42;;
46222;SDS011;31943;51.410;7.564;2022-12-10T15:08:26;63.80;;;33.88;;
46222;SDS011;31943;51.410;7.564;2022-12-10T15:10:54;52.53;;;31.80;;
46222;SDS011;31943;51.410;7.564;2022-12-10T15:13:23;46.95;;;29.10;;
46222;SDS011;31943;51.410;7.564;2022-12-10T15:18:20;47.72;;;27.52;;
46222;SDS011;31943;51.410;7.564;2022-12-10T15:20:52;48.72;;;29.77;;
46222;SDS011;31943;51.410;7.564;2022-12-10T15:23:20;52.80;;;30.02;;
46222;SDS011;31943;51.410;7.564;2022-12-10T15:25:52;49.00;;;28.70;;
46222;SDS011;31943;51.410;7.564;2022-12-10T15:28:24;46.58;;;27.08;;
46222;SDS011;31943;51.410;7.564;2022-12-10T15:30:51;46.88;;;28.75;;
46222;SDS011;31943;51.410;7.564;2022-12-10T15:33:23;42.65;;;25.98;;
46222;SDS011;31943;51.410;7.564;2022-12-10T15:35:54;45.15;;;28.27;;
46222;SDS011;31943;51.410;7.564;2022-12-10T15:38:22;42.75;;;25.10;;
46222;SDS011;31943;51.410;7.564;2022-12-10T15:40:48;38.75;;;25.17;;
46222;SDS011;31943;51.410;7.564;2022-12-10T15:43:20;40.60;;;26.38;;
46222;SDS011;31943;51.410;7.564;2022-12-10T15:45:50;39.95;;;25.30;;
46222;SDS011;31943;51.410;7.564;2022-12-10T15:48:16;39.42;;;24.98;;
46222;SDS011;31943;51.410;7.564;2022-12-10T15:50:43;42.00;;;24.85;;
46222;SDS011;31943;51.410;7.564;2022-12-10T15:53:10;44.15;;;26.50;;
46222;SDS011;31943;51.410;7.564;2022-12-10T15:55:37;44.83;;;28.02;;
46222;SDS011;31943;51.410;7.564;2022-12-10T15:58:04;44.97;;;28.05;;
46222;SDS011;31943;51.410;7.564;2022-12-10T16:00:36;44.22;;;28.65;;
46222;SDS011;31943;51.410;7.564;2022-12-10T16:03:02;42.30;;;26.58;;
46222;SDS011;31943;51.410;7.564;2022-12-10T16:05:29;47.17;;;28.25;;
46222;SDS011;31943;51.410;7.564;2022-12-10T16:07:56;45.35;;;28.75;;
46222;SDS011;31943;51.410;7.564;2022-12-10T16:10:26;53.67;;;32.35;;
46222;SDS011;31943;51.410;7.564;2022-12-10T16:12:57;48.88;;;31.30;;
46222;SDS011;31943;51.410;7.564;2022-12-10T16:15:24;47.75;;;29.80;;
46222;SDS011;31943;51.410;7.564;2022-12-10T16:17:54;45.67;;;28.65;;
46222;SDS011;31943;51.410;7.564;2022-12-10T16:20:21;46.70;;;28.27;;
46222;SDS011;31943;51.410;7.564;2022-12-10T16:22:47;44.13;;;28.17;;
46222;SDS011;31943;51.410;7.564;2022-12-10T16:25:13;49.72;;;29.70;;
46222;SDS011;31943;51.410;7.564;2022-12-10T16:27:39;42.15;;;28.65;;
46222;SDS011;31943;51.410;7.564;2022-12-10T16:30:09;47.65;;;29.27;;
46222;SDS011;31943;51.410;7.564;2022-12-10T16:32:38;48.08;;;28.58;;
46222;SDS011;31943;51.410;7.564;2022-12-10T16:35:05;44.55;;;26.65;;
46222;SDS011;31943;51.410;7.564;2022-12-10T16:37:31;42.65;;;26.40;;
46222;SDS011;31943;51.410;7.564;2022-12-10T16:39:56;43.20;;;26.70;;
46222;SDS011;31943;51.410;7.564;2022-12-10T16:42:22;43.03;;;27.10;;
46222;SDS011;31943;51.410;7.564;2022-12-10T16:44:47;46.42;;;28.92;;
46222;SDS011;31943;51.410;7.564;2022-12-10T16:47:13;45.00;;;26.90;;
46222;SDS011;31943;51.410;7.564;2022-12-10T16:49:39;38.80;;;26.58;;
46222;SDS011;31943;51.410;7.564;2022-12-10T16:52:06;41.17;;;26.98;;
46222;SDS011;31943;51.410;7.564;2022-12-10T16:54:31;39.67;;;26.15;;
46222;SDS011;31943;51.410;7.564;2022-12-10T16:56:57;39.33;;;25.30;;
46222;SDS011;31943;51.410;7.564;2022-12-10T16:59:22;41.20;;;26.33;;
46222;SDS011;31943;51.410;7.564;2022-12-10T17:01:48;44.05;;;26.63;;
46222;SDS011;31943;51.410;7.564;2022-12-10T17:04:14;39.35;;;25.55;;
46222;SDS011;31943;51.410;7.564;2022-12-10T17:06:39;41.85;;;26.33;;
46222;SDS011;31943;51.410;7.564;2022-12-10T17:09:06;43.05;;;26.50;;
46222;SDS011;31943;51.410;7.564;2022-12-10T17:11:33;41.42;;;26.88;;
46222;SDS011;31943;51.410;7.564;2022-12-10T17:14:04;40.70;;;26.17;;
46222;SDS011;31943;51.410;7.564;2022-12-10T17:16:34;39.33;;;26.00;;
46222;SDS011;31943;51.410;7.564;2022-12-10T17:19:00;46.33;;;27.90;;
46222;SDS011;31943;51.410;7.564;2022-12-10T17:21:25;41.83;;;25.80;;
46222;SDS011;31943;51.410;7.564;2022-12-10T17:23:51;43.83;;;27.02;;
46222;SDS011;31943;51.410;7.564;2022-12-10T17:26:20;43.95;;;26.73;;
46222;SDS011;31943;51.410;7.564;2022-12-10T17:28:50;44.88;;;27.27;;
46222;SDS011;31943;51.410;7.564;2022-12-10T17:31:16;45.47;;;26.67;;
46222;SDS011;31943;51.410;7.564;2022-12-10T17:33:42;41.10;;;24.92;;
46222;SDS011;31943;51.410;7.564;2022-12-10T17:36:07;39.88;;;25.17;;
46222;SDS011;31943;51.410;7.564;2022-12-10T17:38:34;43.00;;;26.05;;
46222;SDS011;31943;51.410;7.564;2022-12-10T17:41:00;38.25;;;24.33;;
46222;SDS011;31943;51.410;7.564;2022-12-10T17:43:27;42.25;;;25.88;;
46222;SDS011;31943;51.410;7.564;2022-12-10T17:45:53;41.17;;;24.30;;
46222;SDS011;31943;51.410;7.564;2022-12-10T17:48:21;39.65;;;24.30;;
46222;SDS011;31943;51.410;7.564;2022-12-10T17:50:46;40.20;;;23.67;;
46222;SDS011;31943;51.410;7.564;2022-12-10T17:53:12;41.47;;;24.40;;
46222;SDS011;31943;51.410;7.564;2022-12-10T17:55:40;39.38;;;23.58;;
46222;SDS011;31943;51.410;7.564;2022-12-10T17:58:07;34.97;;;22.13;;
46222;SDS011;31943;51.410;7.564;2022-12-10T18:00:36;35.05;;;22.20;;
46222;SDS011;31943;51.410;7.564;2022-12-10T18:03:01;40.58;;;23.40;;
46222;SDS011;31943;51.410;7.564;2022-12-10T18:05:27;37.83;;;23.42;;
46222;SDS011;31943;51.410;7.564;2022-12-10T18:07:53;39.72;;;25.38;;
46222;SDS011;31943;51.410;7.564;2022-12-10T18:10:20;43.30;;;24.20;;
46222;SDS011;31943;51.410;7.564;2022-12-10T18:12:47;39.70;;;23.58;;
46222;SDS011;31943;51.410;7.564;2022-12-10T18:15:13;36.95;;;23.67;;
46222;SDS011;31943;51.410;7.564;2022-12-10T18:17:41;44.92;;;26.83;;
46222;SDS011;31943;51.410;7.564;2022-12-10T18:20:06;40.80;;;25.55;;
46222;SDS011;31943;51.410;7.564;2022-12-10T18:22:32;42.47;;;24.52;;
46222;SDS011;31943;51.410;7.564;2022-12-10T18:24:58;41.75;;;26.83;;
46222;SDS011;31943;51.410;7.564;2022-12-10T18:27:23;42.10;;;25.67;;
46222;SDS011;31943;51.410;7.564;2022-12-10T18:29:49;38.95;;;24.40;;
46222;SDS011;31943;51.410;7.564;2022-12-10T18:32:15;42.25;;;23.98;;
46222;SDS011;31943;51.410;7.564;2022-12-10T18:34:42;44.03;;;25.58;;
46222;SDS011;31943;51.410;7.564;2022-12-10T18:37:08;46.30;;;26.55;;
46222;SDS011;31943;51.410;7.564;2022-12-10T18:39:34;45.00;;;25.98;;
46222;SDS011;31943;51.410;7.564;2022-12-10T18:41:59;43.55;;;24.77;;
46222;SDS011;31943;51.410;7.564;2022-12-10T18:44:25;40.85;;;26.02;;
46222;SDS011;31943;51.410;7.564;2022-12-10T18:46:53;40.13;;;24.73;;
46222;SDS011;31943;51.410;7.564;2022-12-10T18:49:20;45.17;;;26.10;;
46222;SDS011;31943;51.410;7.564;2022-12-10T18:51:48;41.33;;;25.75;;
46222;SDS011;31943;51.410;7.564;2022-12-10T18:54:13;41.78;;;25.58;;
46222;SDS011;31943;51.410;7.564;2022-12-10T18:56:39;44.03;;;24.65;;
46222;SDS011;31943;51.410;7.564;2022-12-10T18:59:06;42.58;;;25.70;;
46222;SDS011;31943;51.410;7.564;2022-12-10T19:01:36;40.80;;;23.97;;
46222;SDS011;31943;51.410;7.564;2022-12-10T19:04:02;46.03;;;25.08;;
46222;SDS011;31943;51.410;7.564;2022-12-10T19:06:28;44.80;;;24.92;;
46222;SDS011;31943;51.410;7.564;2022-12-10T19:08:56;40.30;;;24.65;;
46222;SDS011;31943;51.410;7.564;2022-12-10T19:11:23;44.70;;;26.92;;
46222;SDS011;31943;51.410;7.564;2022-12-10T19:13:49;43.10;;;26.60;;
46222;SDS011;31943;51.410;7.564;2022-12-10T19:16:16;49.85;;;27.55;;
46222;SDS011;31943;51.410;7.564;2022-12-10T19:18:43;47.20;;;26.67;;
46222;SDS011;31943;51.410;7.564;2022-12-10T19:21:10;50.08;;;27.80;;
46222;SDS011;31943;51.410;7.564;2022-12-10T19:23:36;50.70;;;29.30;;
46222;SDS011;31943;51.410;7.564;2022-12-10T19:26:03;54.40;;;32.78;;
46222;SDS011;31943;51.410;7.564;2022-12-10T19:28:37;58.72;;;32.30;;
46222;SDS011;31943;51.410;7.564;2022-12-10T19:31:02;53.00;;;29.75;;
46222;SDS011;31943;51.410;7.564;2022-12-10T19:33:28;49.38;;;28.80;;
46222;SDS011;31943;51.410;7.564;2022-12-10T19:35:54;47.65;;;27.27;;
46222;SDS011;31943;51.410;7.564;2022-12-10T19:38:19;45.63;;;26.88;;
46222;SDS011;31943;51.410;7.564;2022-12-10T19:40:45;48.92;;;26.08;;
46222;SDS011;31943;51.410;7.564;2022-12-10T19:43:12;49.80;;;28.95;;
46222;SDS011;31943;51.410;7.564;2022-12-10T19:45:38;48.17;;;28.52;;
46222;SDS011;31943;51.410;7.564;2022-12-10T19:48:05;50.42;;;27.02;;
46222;SDS011;31943;51.410;7.564;2022-12-10T19:50:32;50.30;;;29.17;;
46222;SDS011;31943;51.410;7.564;2022-12-10T19:52:58;48.70;;;26.83;;
46222;SDS011;31943;51.410;7.564;2022-12-10T19:55:24;47.58;;;26.88;;
46222;SDS011;31943;51.410;7.564;2022-12-10T19:57:50;46.38;;;25.50;;
46222;SDS011;31943;51.410;7.564;2022-12-10T20:00:18;46.40;;;27.70;;
46222;SDS011;31943;51.410;7.564;2022-12-10T20:02:45;46.67;;;25.83;;
46222;SDS011;31943;51.410;7.564;2022-12-10T20:05:10;46.63;;;27.23;;
46222;SDS011;31943;51.410;7.564;2022-12-10T20:07:37;51.22;;;27.98;;
46222;SDS011;31943;51.410;7.564;2022-12-10T20:10:02;45.13;;;25.52;;
46222;SDS011;31943;51.410;7.564;2022-12-10T20:12:29;44.58;;;25.17;;
46222;SDS011;31943;51.410;7.564;2022-12-10T20:14:55;46.72;;;25.25;;
46222;SDS011;31943;51.410;7.564;2022-12-10T20:17:22;52.88;;;29.05;;
46222;SDS011;31943;51.410;7.564;2022-12-10T20:19:48;49.05;;;28.90;;
46222;SDS011;31943;51.410;7.564;2022-12-10T20:22:13;45.90;;;25.42;;
46222;SDS011;31943;51.410;7.564;2022-12-10T20:24:39;45.65;;;25.98;;
46222;SDS011;31943;51.410;7.564;2022-12-10T20:27:05;47.58;;;25.92;;
46222;SDS011;31943;51.410;7.564;2022-12-10T20:29:30;45.03;;;25.50;;
46222;SDS011;31943;51.410;7.564;2022-12-10T20:31:56;47.50;;;26.98;;
46222;SDS011;31943;51.410;7.564;2022-12-10T20:34:24;48.33;;;26.73;;
46222;SDS011;31943;51.410;7.564;2022-12-10T20:36:50;48.25;;;26.60;;
46222;SDS011;31943;51.410;7.564;2022-12-10T20:39:17;51.47;;;27.98;;
46222;SDS011;31943;51.410;7.564;2022-12-10T20:41:44;48.42;;;27.75;;
46222;SDS011;31943;51.410;7.564;2022-12-10T20:44:11;51.80;;;27.80;;
46222;SDS011;31943;51.410;7.564;2022-12-10T20:46:37;51.70;;;28.55;;
46222;SDS011;31943;51.410;7.564;2022-12-10T20:49:03;49.35;;;28.75;;
46222;SDS011;31943;51.410;7.564;2022-12-10T20:51:30;53.85;;;28.40;;
46222;SDS011;31943;51.410;7.564;2022-12-10T20:53:56;55.75;;;30.40;;
46222;SDS011;31943;51.410;7.564;2022-12-10T20:56:22;57.83;;;30.98;;
46222;SDS011;31943;51.410;7.564;2022-12-10T20:58:50;59.47;;;31.70;;
46222;SDS011;31943;51.410;7.564;2022-12-10T21:01:16;62.15;;;32.58;;
46222;SDS011;31943;51.410;7.564;2022-12-10T21:03:43;56.10;;;31.15;;
46222;SDS011;31943;51.410;7.564;2022-12-10T21:06:09;59.50;;;32.78;;
46222;SDS011;31943;51.410;7.564;2022-12-10T21:08:40;62.40;;;32.78;;
46222;SDS011;31943;51.410;7.564;2022-12-10T21:11:06;60.28;;;32.95;;
46222;SDS011;31943;51.410;7.564;2022-12-10T21:13:32;52.08;;;28.50;;
46222;SDS011;31943;51.410;7.564;2022-12-10T21:15:59;57.58;;;30.23;;
46222;SDS011;31943;51.410;7.564;2022-12-10T21:18:26;56.90;;;31.05;;
46222;SDS011;31943;51.410;7.564;2022-12-10T21:20:53;49.58;;;28.67;;
46222;SDS011;31943;51.410;7.564;2022-12-10T21:23:19;57.22;;;30.38;;
46222;SDS011;31943;51.410;7.564;2022-12-10T21:25:48;51.92;;;29.75;;
46222;SDS011;31943;51.410;7.564;2022-12-10T21:28:14;56.10;;;30.08;;
46222;SDS011;31943;51.410;7.564;2022-12-10T21:30:39;56.35;;;29.90;;
46222;SDS011;31943;51.410;7.564;2022-12-10T21:33:05;49.95;;;29.38;;
46222;SDS011;31943;51.410;7.564;2022-12-10T21:35:31;50.58;;;28.95;;
46222;SDS011;31943;51.410;7.564;2022-12-10T21:37:57;57.92;;;31.42;;
46222;SDS011;31943;51.410;7.564;2022-12-10T21:40:22;56.38;;;29.38;;
46222;SDS011;31943;51.410;7.564;2022-12-10T21:42:49;51.05;;;30.13;;
46222;SDS011;31943;51.410;7.564;2022-12-10T21:45:15;59.92;;;30.90;;
46222;SDS011;31943;51.410;7.564;2022-12-10T21:47:41;56.30;;;30.80;;
46222;SDS011;31943;51.410;7.564;2022-12-10T21:50:06;54.13;;;30.88;;
46222;SDS011;31943;51.410;7.564;2022-12-10T21:52:32;52.45;;;31.10;;
46222;SDS011;31943;51.410;7.564;2022-12-10T21:54:58;53.22;;;29.35;;
46222;SDS011;31943;51.410;7.564;2022-12-10T21:57:24;51.13;;;31.58;;
46222;SDS011;31943;51.410;7.564;2022-12-10T21:59:51;56.80;;;32.17;;
46222;SDS011;31943;51.410;7.564;2022-12-10T22:02:17;55.97;;;31.23;;
46222;SDS011;31943;51.410;7.564;2022-12-10T22:04:42;57.13;;;31.55;;
46222;SDS011;31943;51.410;7.564;2022-12-10T22:07:08;57.45;;;32.08;;
46222;SDS011;31943;51.410;7.564;2022-12-10T22:09:33;64.53;;;35.40;;
46222;SDS011;31943;51.410;7.564;2022-12-10T22:11:59;61.65;;;33.40;;
46222;SDS011;31943;51.410;7.564;2022-12-10T22:14:25;56.45;;;31.25;;
46222;SDS011;31943;51.410;7.564;2022-12-10T22:16:52;53.35;;;29.45;;
46222;SDS011;31943;51.410;7.564;2022-12-10T22:19:18;58.75;;;31.95;;
46222;SDS011;31943;51.410;7.564;2022-12-10T22:21:43;55.42;;;31.83;;
46222;SDS011;31943;51.410;7.564;2022-12-10T22:24:09;56.40;;;30.95;;
46222;SDS011;31943;51.410;7.564;2022-12-10T22:26:34;51.92;;;30.10;;
46222;SDS011;31943;51.410;7.564;2022-12-10T22:29:00;54.67;;;31.10;;
46222;SDS011;31943;51.410;7.564;2022-12-10T22:31:26;53.90;;;29.98;;
46222;SDS011;31943;51.410;7.564;2022-12-10T22:33:53;53.63;;;30.85;;
46222;SDS011;31943;51.410;7.564;2022-12-10T22:36:19;56.97;;;31.95;;
46222;SDS011;31943;51.410;7.564;2022-12-10T22:38:45;54.88;;;30.52;;